createdAt,value
2017-08-17T00:01:46.816Z,7.97
2017-08-17T00:04:15.245Z,6.60
2017-08-17T00:06:43.657Z,7.67
2017-08-17T00:09:12.098Z,7.80
2017-08-17T00:11:40.521Z,8.13
2017-08-17T00:14:09.247Z,7.50
2017-08-17T00:16:37.722Z,7.67
2017-08-17T00:19:06.208Z,8.97
2017-08-17T00:21:34.783Z,8.50
2017-08-17T00:24:03.246Z,8.13
2017-08-17T00:26:31.715Z,7.60
2017-08-17T00:29:00.226Z,8.63
2017-08-17T00:31:28.680Z,7.40
2017-08-17T00:33:57.222Z,7.50
2017-08-17T00:36:25.717Z,7.33
2017-08-17T00:38:53.886Z,8.67
2017-08-17T00:41:22.400Z,9.00
2017-08-17T00:43:50.933Z,9.53
2017-08-17T00:46:19.455Z,8.87
2017-08-17T00:48:48.154Z,8.67
2017-08-17T00:51:16.938Z,8.83
2017-08-17T00:53:45.454Z,8.80
2017-08-17T00:56:13.932Z,8.93
2017-08-17T00:58:42.709Z,8.80
2017-08-17T01:01:11.227Z,9.47
2017-08-17T01:03:39.971Z,9.03
2017-08-17T01:06:08.153Z,10.33
2017-08-17T01:08:36.678Z,8.63
2017-08-17T01:11:05.147Z,8.60
2017-08-17T01:13:33.828Z,10.90
2017-08-17T01:16:01.662Z,9.07
2017-08-17T01:18:30.146Z,9.80
2017-08-17T01:20:58.186Z,9.77
2017-08-17T01:23:26.208Z,9.50
2017-08-17T01:25:54.092Z,9.40
2017-08-17T01:28:22.251Z,9.33
2017-08-17T01:30:50.289Z,10.07
2017-08-17T01:33:18.437Z,8.07
2017-08-17T01:35:46.601Z,9.90
2017-08-17T01:38:14.964Z,9.20
2017-08-17T01:40:43.358Z,9.03
2017-08-17T01:43:11.534Z,9.10
2017-08-17T01:45:40.022Z,10.70
2017-08-17T01:48:08.683Z,10.50
2017-08-17T01:50:37.177Z,10.00
2017-08-17T01:53:05.356Z,11.93
2017-08-17T01:55:33.375Z,8.87
2017-08-17T01:58:01.581Z,11.47
2017-08-17T02:00:29.375Z,10.03
2017-08-17T02:02:58.099Z,11.60
2017-08-17T02:05:27.275Z,11.97
2017-08-17T02:07:55.968Z,9.60
2017-08-17T02:10:24.696Z,9.43
2017-08-17T02:12:53.373Z,9.60
2017-08-17T02:15:21.855Z,10.27
2017-08-17T02:17:50.566Z,9.47
2017-08-17T02:20:19.060Z,11.70
2017-08-17T02:22:47.794Z,10.77
2017-08-17T02:25:16.511Z,11.40
2017-08-17T02:27:45.190Z,11.20
2017-08-17T02:30:14.471Z,10.50
2017-08-17T02:32:43.174Z,9.70
2017-08-17T02:35:11.876Z,10.33
2017-08-17T02:37:41.309Z,11.40
2017-08-17T02:40:09.894Z,9.57
2017-08-17T02:42:38.596Z,10.30
2017-08-17T02:45:07.300Z,10.67
2017-08-17T02:47:35.772Z,10.60
2017-08-17T02:50:04.239Z,10.77
2017-08-17T02:52:32.931Z,9.00
2017-08-17T02:55:01.378Z,9.27
2017-08-17T02:57:29.831Z,10.97
2017-08-17T02:59:58.329Z,10.77
2017-08-17T03:02:26.827Z,9.23
2017-08-17T03:04:56.059Z,9.77
2017-08-17T03:07:24.583Z,9.10
2017-08-17T03:09:52.780Z,9.13
2017-08-17T03:12:21.455Z,8.47
2017-08-17T03:14:50.170Z,9.30
2017-08-17T03:17:18.900Z,10.50
2017-08-17T03:19:47.382Z,9.00
2017-08-17T03:22:16.098Z,10.57
2017-08-17T03:24:44.325Z,9.30
2017-08-17T03:27:12.891Z,11.10
2017-08-17T03:29:41.595Z,12.57
2017-08-17T03:32:10.147Z,11.60
2017-08-17T03:34:38.670Z,11.13
2017-08-17T03:37:07.356Z,10.53
2017-08-17T03:39:35.873Z,10.23
2017-08-17T03:42:04.066Z,9.60
2017-08-17T03:44:32.497Z,11.83
2017-08-17T03:47:01.176Z,10.13
2017-08-17T03:49:29.598Z,10.20
2017-08-17T03:51:58.025Z,8.87
2017-08-17T03:54:26.517Z,9.77
2017-08-17T03:56:55.289Z,9.40
2017-08-17T03:59:23.988Z,9.27
2017-08-17T04:01:52.521Z,10.07
2017-08-17T04:04:21.260Z,11.50
2017-08-17T04:06:49.840Z,13.47
2017-08-17T04:09:18.335Z,12.00
2017-08-17T04:11:47.055Z,12.10
2017-08-17T04:14:15.608Z,13.23
2017-08-17T04:16:44.183Z,12.37
2017-08-17T04:19:12.697Z,10.90
2017-08-17T04:21:41.166Z,10.87
2017-08-17T04:24:09.374Z,10.47
2017-08-17T04:26:37.898Z,9.80
2017-08-17T04:29:06.656Z,11.03
2017-08-17T04:31:35.198Z,9.90
2017-08-17T04:34:03.859Z,9.67
2017-08-17T04:36:32.332Z,9.07
2017-08-17T04:39:01.069Z,9.57
2017-08-17T04:41:29.776Z,9.57
2017-08-17T04:43:58.495Z,9.17
2017-08-17T04:46:27.001Z,9.90
2017-08-17T04:48:55.718Z,8.73
2017-08-17T04:51:24.502Z,8.47
2017-08-17T04:53:52.969Z,7.87
2017-08-17T04:56:37.931Z,8.77
2017-08-17T04:59:06.368Z,9.57
2017-08-17T05:01:35.140Z,8.77
2017-08-17T05:04:03.833Z,9.10
2017-08-17T05:06:32.402Z,10.37
2017-08-17T05:09:01.086Z,8.30
2017-08-17T05:11:29.810Z,8.57
2017-08-17T05:13:59.866Z,8.93
2017-08-17T05:16:28.334Z,7.20
2017-08-17T05:18:56.775Z,7.57
2017-08-17T05:21:25.229Z,6.93
2017-08-17T05:23:53.888Z,7.40
2017-08-17T05:26:22.535Z,7.80
2017-08-17T05:28:51.036Z,7.27
2017-08-17T05:31:19.523Z,7.47
2017-08-17T05:33:47.938Z,7.03
2017-08-17T05:36:16.431Z,6.63
2017-08-17T05:38:44.858Z,6.27
2017-08-17T05:41:13.277Z,6.10
2017-08-17T05:43:41.737Z,8.13
2017-08-17T05:46:10.958Z,6.27
2017-08-17T05:48:39.481Z,6.30
2017-08-17T05:51:07.930Z,6.73
2017-08-17T05:53:36.338Z,6.67
2017-08-17T05:56:04.845Z,5.80
2017-08-17T06:01:55.364Z,6.30
2017-08-17T06:04:32.374Z,6.50
2017-08-17T06:07:26.375Z,5.80
2017-08-17T06:10:15.013Z,5.80
2017-08-17T06:12:47.746Z,5.70
2017-08-17T06:15:17.089Z,5.83
2017-08-17T06:17:45.622Z,4.90
2017-08-17T06:20:26.303Z,5.40
2017-08-17T06:25:47.652Z,6.10
2017-08-17T06:28:23.204Z,5.57
2017-08-17T06:30:51.871Z,5.13
2017-08-17T06:33:20.627Z,5.47
2017-08-17T06:35:49.162Z,6.40
2017-08-17T06:38:17.730Z,6.30
2017-08-17T06:40:46.253Z,5.93
2017-08-17T06:43:14.613Z,5.50
2017-08-17T06:45:43.189Z,5.70
2017-08-17T06:48:11.738Z,4.40
2017-08-17T06:50:40.271Z,5.77
2017-08-17T06:53:08.943Z,5.57
2017-08-17T06:55:37.500Z,4.40
2017-08-17T06:58:06.093Z,5.13
2017-08-17T07:00:34.656Z,4.60
2017-08-17T07:03:03.144Z,4.47
2017-08-17T07:05:31.660Z,5.20
2017-08-17T07:08:00.184Z,4.20
2017-08-17T07:10:28.690Z,4.53
2017-08-17T07:12:57.022Z,5.13
2017-08-17T07:15:25.587Z,3.90
2017-08-17T07:17:54.265Z,3.90
2017-08-17T07:20:22.862Z,4.37
2017-08-17T07:22:52.331Z,4.40
2017-08-17T07:25:20.965Z,4.37
2017-08-17T07:27:49.588Z,4.10
2017-08-17T07:30:44.344Z,4.70
2017-08-17T07:33:13.186Z,3.90
2017-08-17T07:35:55.785Z,4.03
2017-08-17T07:38:24.346Z,4.37
2017-08-17T07:40:52.983Z,3.60
2017-08-17T07:43:21.562Z,4.73
2017-08-17T07:45:51.023Z,3.77
2017-08-17T07:48:19.599Z,3.50
2017-08-17T07:50:48.502Z,3.63
2017-08-17T07:53:18.696Z,3.40
2017-08-17T07:55:46.786Z,3.33
2017-08-17T07:58:15.343Z,3.90
2017-08-17T08:00:48.227Z,3.37
2017-08-17T08:03:17.690Z,2.77
2017-08-17T08:05:47.244Z,3.23
2017-08-17T08:08:15.867Z,2.93
2017-08-17T08:10:44.446Z,2.73
2017-08-17T08:13:13.003Z,2.40
2017-08-17T08:15:42.305Z,1.90
2017-08-17T08:18:10.932Z,1.90
2017-08-17T08:20:39.504Z,2.07
2017-08-17T08:23:08.054Z,2.57
2017-08-17T08:25:36.713Z,2.40
2017-08-17T08:28:05.331Z,2.17
2017-08-17T08:30:33.880Z,2.60
2017-08-17T08:33:02.504Z,2.10
2017-08-17T08:35:31.022Z,2.07
2017-08-17T08:37:59.773Z,2.20
2017-08-17T08:40:28.389Z,2.20
2017-08-17T08:42:56.943Z,2.33
2017-08-17T08:45:27.613Z,2.57
2017-08-17T08:47:56.231Z,2.40
2017-08-17T08:50:24.837Z,2.10
2017-08-17T08:52:53.400Z,2.37
2017-08-17T08:55:21.947Z,2.43
2017-08-17T08:57:50.498Z,3.00
2017-08-17T09:00:19.136Z,2.20
2017-08-17T09:02:47.648Z,2.43
2017-08-17T09:05:16.191Z,2.37
2017-08-17T09:07:44.833Z,3.07
2017-08-17T09:10:13.395Z,2.63
2017-08-17T09:12:42.214Z,2.50
2017-08-17T09:15:11.320Z,3.23
2017-08-17T09:20:20.508Z,2.37
2017-08-17T09:22:49.047Z,2.53
2017-08-17T09:25:17.622Z,2.40
2017-08-17T09:27:58.258Z,2.37
2017-08-17T09:33:05.479Z,2.20
2017-08-17T09:35:35.246Z,2.37
2017-08-17T09:38:03.805Z,1.80
2017-08-17T09:40:32.378Z,2.70
2017-08-17T09:43:02.449Z,2.50
2017-08-17T09:45:30.996Z,2.57
2017-08-17T09:47:59.525Z,2.50
2017-08-17T09:50:28.063Z,2.17
2017-08-17T09:52:56.802Z,2.30
2017-08-17T09:55:27.134Z,2.57
2017-08-17T09:57:55.768Z,1.90
2017-08-17T10:00:24.300Z,2.30
2017-08-17T10:02:52.842Z,2.40
2017-08-17T10:05:23.802Z,1.60
2017-08-17T10:07:52.314Z,2.50
2017-08-17T10:10:20.828Z,1.90
2017-08-17T10:12:49.346Z,1.73
2017-08-17T10:15:17.877Z,2.17
2017-08-17T10:17:46.358Z,2.67
2017-08-17T10:20:14.829Z,2.57
2017-08-17T10:22:43.306Z,1.60
2017-08-17T10:25:11.836Z,1.70
2017-08-17T10:27:40.282Z,1.90
2017-08-17T10:30:08.726Z,3.00
2017-08-17T10:32:37.251Z,2.13
2017-08-17T10:35:05.714Z,1.60
2017-08-17T10:37:34.154Z,1.60
2017-08-17T10:40:02.662Z,1.70
2017-08-17T10:42:33.117Z,1.57
2017-08-17T10:45:01.570Z,2.20
2017-08-17T10:47:30.010Z,1.67
2017-08-17T10:52:39.005Z,2.30
2017-08-17T10:55:07.422Z,1.90
2017-08-17T10:57:35.849Z,2.13
2017-08-17T11:00:04.276Z,1.50
2017-08-17T11:02:32.678Z,1.70
2017-08-17T11:05:01.110Z,1.57
2017-08-17T11:07:29.554Z,2.20
2017-08-17T11:09:57.982Z,1.97
2017-08-17T11:12:26.445Z,3.07
2017-08-17T11:14:54.876Z,2.30
2017-08-17T11:17:23.289Z,1.90
2017-08-17T11:19:51.741Z,2.50
2017-08-17T11:22:20.150Z,2.93
2017-08-17T11:24:48.565Z,2.70
2017-08-17T11:27:17.609Z,2.80
2017-08-17T11:29:46.834Z,2.47
2017-08-17T11:32:15.238Z,2.00
2017-08-17T11:34:43.697Z,2.70
2017-08-17T11:37:12.101Z,2.80
2017-08-17T11:39:41.270Z,3.00
2017-08-17T11:42:09.683Z,2.50
2017-08-17T11:44:38.079Z,2.63
2017-08-17T11:47:06.498Z,2.53
2017-08-17T11:49:34.901Z,2.60
2017-08-17T11:52:03.303Z,2.73
2017-08-17T11:54:32.500Z,2.30
2017-08-17T11:57:00.915Z,2.40
2017-08-17T11:59:29.319Z,2.10
2017-08-17T12:01:57.750Z,2.43
2017-08-17T12:04:26.921Z,3.17
2017-08-17T12:06:55.323Z,2.90
2017-08-17T12:09:23.745Z,2.87
2017-08-17T12:11:52.161Z,3.03
2017-08-17T12:14:20.562Z,2.60
2017-08-17T12:16:48.794Z,3.07
2017-08-17T12:19:17.193Z,3.40
2017-08-17T12:21:45.603Z,3.77
2017-08-17T12:24:14.005Z,2.90
2017-08-17T12:26:42.442Z,3.10
2017-08-17T12:29:10.842Z,3.07
2017-08-17T12:31:39.246Z,3.63
2017-08-17T12:34:07.661Z,3.00
2017-08-17T12:36:36.065Z,3.37
2017-08-17T12:39:03.585Z,2.97
2017-08-17T12:41:32.006Z,3.17
2017-08-17T12:44:00.414Z,3.40
2017-08-17T12:46:28.861Z,3.40
2017-08-17T12:48:57.267Z,3.50
2017-08-17T12:51:26.450Z,2.80
2017-08-17T12:53:54.869Z,2.70
2017-08-17T12:56:23.267Z,3.03
2017-08-17T12:58:51.665Z,3.10
2017-08-17T13:01:20.089Z,3.57
2017-08-17T13:03:49.258Z,3.97
2017-08-17T13:06:17.673Z,3.10
2017-08-17T13:08:46.102Z,3.30
2017-08-17T13:11:14.522Z,3.53
2017-08-17T13:13:42.971Z,3.80
2017-08-17T13:16:11.417Z,4.00
2017-08-17T13:18:39.867Z,4.13
2017-08-17T13:21:08.261Z,3.33
2017-08-17T13:23:36.695Z,3.23
2017-08-17T13:26:05.102Z,3.67
2017-08-17T13:28:33.497Z,3.47
2017-08-17T13:31:01.948Z,4.03
2017-08-17T13:33:30.439Z,3.77
2017-08-17T13:35:58.847Z,3.73
2017-08-17T13:38:27.273Z,3.70
2017-08-17T13:40:55.730Z,3.57
2017-08-17T13:43:24.245Z,3.40
2017-08-17T13:45:52.669Z,4.47
2017-08-17T13:48:21.079Z,4.53
2017-08-17T13:50:49.513Z,4.50
2017-08-17T13:53:18.037Z,3.73
2017-08-17T13:55:46.493Z,4.20
2017-08-17T13:58:14.889Z,4.40
2017-08-17T14:00:43.357Z,3.73
2017-08-17T14:03:11.797Z,3.80
2017-08-17T14:05:40.222Z,4.20
2017-08-17T14:08:08.654Z,3.80
2017-08-17T14:10:37.151Z,3.63
2017-08-17T14:13:05.634Z,4.33
2017-08-17T14:15:34.049Z,3.77
2017-08-17T14:18:02.472Z,3.70
2017-08-17T14:20:30.926Z,3.77
2017-08-17T14:22:59.439Z,3.57
2017-08-17T14:25:28.063Z,4.17
2017-08-17T14:27:56.549Z,4.00
2017-08-17T14:30:25.022Z,4.30
2017-08-17T14:32:53.451Z,3.83
2017-08-17T14:35:21.909Z,3.27
2017-08-17T14:37:50.314Z,4.07
2017-08-17T14:40:18.722Z,4.30
2017-08-17T14:42:47.196Z,4.00
2017-08-17T14:45:15.649Z,4.00
2017-08-17T14:47:45.054Z,4.10
2017-08-17T14:50:13.526Z,4.50
2017-08-17T14:52:42.782Z,4.87
2017-08-17T14:55:11.251Z,3.80
2017-08-17T14:57:41.416Z,4.13
2017-08-17T15:00:09.829Z,3.80
2017-08-17T15:02:38.370Z,4.40
2017-08-17T15:05:10.362Z,4.93
2017-08-17T15:07:38.438Z,4.07
2017-08-17T15:10:06.854Z,3.60
2017-08-17T15:12:35.344Z,3.90
2017-08-17T15:15:03.793Z,4.43
2017-08-17T15:17:32.221Z,3.50
2017-08-17T15:20:00.705Z,3.73
2017-08-17T15:22:29.133Z,4.23
2017-08-17T15:24:57.590Z,4.40
2017-08-17T15:27:26.048Z,4.23
2017-08-17T15:29:54.471Z,4.17
2017-08-17T15:32:22.887Z,3.73
2017-08-17T15:34:51.342Z,4.00
2017-08-17T15:37:19.777Z,5.50
2017-08-17T15:39:48.195Z,3.60
2017-08-17T15:42:16.937Z,4.40
2017-08-17T15:44:45.377Z,4.63
2017-08-17T15:47:13.806Z,3.20
2017-08-17T15:49:42.282Z,3.87
2017-08-17T15:52:10.726Z,4.60
2017-08-17T15:54:39.157Z,4.60
2017-08-17T15:57:07.604Z,5.60
2017-08-17T15:59:36.058Z,5.77
2017-08-17T16:02:04.524Z,4.20
2017-08-17T16:04:32.963Z,4.27
2017-08-17T16:07:01.381Z,4.83
2017-08-17T16:09:29.819Z,5.00
2017-08-17T16:11:58.268Z,4.90
2017-08-17T16:14:26.705Z,5.60
2017-08-17T16:16:55.148Z,8.80
2017-08-17T16:19:23.665Z,5.40
2017-08-17T16:21:52.113Z,6.90
2017-08-17T16:24:20.561Z,7.57
2017-08-17T16:26:49.031Z,5.00
2017-08-17T16:29:17.457Z,5.27
2017-08-17T16:31:45.902Z,5.23
2017-08-17T16:34:14.423Z,5.80
2017-08-17T16:36:42.886Z,4.70
2017-08-17T16:39:11.325Z,4.77
2017-08-17T16:41:39.784Z,4.73
2017-08-17T16:44:08.243Z,4.50
2017-08-17T16:46:36.702Z,5.80
2017-08-17T16:49:05.190Z,4.90
2017-08-17T16:51:33.632Z,4.30
2017-08-17T16:54:06.780Z,5.53
2017-08-17T16:56:36.077Z,4.33
2017-08-17T16:59:05.882Z,4.33
2017-08-17T17:01:37.755Z,4.53
2017-08-17T17:04:06.207Z,5.30
2017-08-17T17:06:34.655Z,6.27
2017-08-17T17:09:03.124Z,8.70
2017-08-17T17:11:34.625Z,6.80
2017-08-17T17:14:06.039Z,6.90
2017-08-17T17:16:34.480Z,6.83
2017-08-17T17:19:04.079Z,5.30
2017-08-17T17:21:33.846Z,6.57
2017-08-17T17:24:02.279Z,8.37
2017-08-17T17:26:30.776Z,7.00
2017-08-17T17:28:59.249Z,6.17
2017-08-17T17:31:27.734Z,6.13
2017-08-17T17:33:56.197Z,6.53
2017-08-17T17:36:24.728Z,5.90
2017-08-17T17:38:53.186Z,13.50
2017-08-17T17:41:22.820Z,27.83
2017-08-17T17:43:52.147Z,10.03
2017-08-17T17:46:20.624Z,7.40
2017-08-17T17:48:49.067Z,6.80
2017-08-17T17:51:17.140Z,6.03
2017-08-17T17:53:45.606Z,7.17
2017-08-17T17:56:14.038Z,9.90
2017-08-17T17:58:42.512Z,9.10
2017-08-17T18:01:10.926Z,9.20
2017-08-17T18:03:39.341Z,5.90
2017-08-17T18:06:07.762Z,5.50
2017-08-17T18:08:36.171Z,6.00
2017-08-17T18:11:05.360Z,6.73
2017-08-17T18:13:35.846Z,5.90
2017-08-17T18:16:04.269Z,6.77
2017-08-17T18:18:33.814Z,5.80
2017-08-17T18:21:02.249Z,6.40
2017-08-17T18:23:30.751Z,6.83
2017-08-17T18:25:59.149Z,6.47
2017-08-17T18:28:27.581Z,6.20
2017-08-17T18:30:55.985Z,5.47
2017-08-17T18:33:24.397Z,5.53
2017-08-17T18:35:54.903Z,7.10
2017-08-17T18:38:23.471Z,7.30
2017-08-17T18:40:51.937Z,6.60
2017-08-17T18:43:20.373Z,7.23
2017-08-17T18:45:48.805Z,6.50
2017-08-17T18:48:17.049Z,5.97
2017-08-17T18:50:45.474Z,7.20
2017-08-17T18:53:13.926Z,6.77
2017-08-17T18:55:42.346Z,6.83
2017-08-17T18:58:10.756Z,5.83
2017-08-17T19:00:39.186Z,6.57
2017-08-17T19:03:07.662Z,6.40
2017-08-17T19:05:36.073Z,6.70
2017-08-17T19:08:04.499Z,6.70
2017-08-17T19:10:42.459Z,6.77
2017-08-17T19:13:13.345Z,7.20
2017-08-17T19:15:41.762Z,5.80
2017-08-17T19:18:10.242Z,6.37
2017-08-17T19:20:39.689Z,7.07
2017-08-17T19:23:08.211Z,6.80
2017-08-17T19:25:36.754Z,6.77
2017-08-17T19:28:05.214Z,7.33
2017-08-17T19:30:33.621Z,6.80
2017-08-17T19:33:02.023Z,7.00
2017-08-17T19:35:30.454Z,6.10
2017-08-17T19:37:58.854Z,6.80
2017-08-17T19:40:27.250Z,7.40
2017-08-17T19:42:55.669Z,7.27
2017-08-17T19:45:24.069Z,7.90
2017-08-17T19:47:52.470Z,7.50
2017-08-17T19:50:20.890Z,6.40
2017-08-17T19:52:49.293Z,7.57
2017-08-17T19:55:17.718Z,7.40
2017-08-17T19:57:46.885Z,7.27
2017-08-17T20:00:17.726Z,6.83
2017-08-17T20:02:46.222Z,7.50
2017-08-17T20:05:14.616Z,6.90
2017-08-17T20:07:46.049Z,7.17
2017-08-17T20:10:14.526Z,7.23
2017-08-17T20:12:42.934Z,7.33
2017-08-17T20:15:11.334Z,6.67
2017-08-17T20:17:39.771Z,7.40
2017-08-17T20:20:08.169Z,7.80
2017-08-17T20:22:36.639Z,7.27
2017-08-17T20:25:05.061Z,7.27
2017-08-17T20:27:33.462Z,7.40
2017-08-17T20:30:01.878Z,7.30
2017-08-17T20:32:30.320Z,7.80
2017-08-17T20:34:58.728Z,7.03
2017-08-17T20:37:27.125Z,7.47
2017-08-17T20:39:55.538Z,6.40
2017-08-17T20:42:24.001Z,7.60
2017-08-17T20:44:52.410Z,6.40
2017-08-17T20:47:22.714Z,6.60
2017-08-17T20:49:51.145Z,7.27
2017-08-17T20:52:19.617Z,8.23
2017-08-17T20:54:48.030Z,8.40
2017-08-17T20:57:16.467Z,8.00
2017-08-17T20:59:44.963Z,7.67
2017-08-17T21:02:13.365Z,8.20
2017-08-17T21:04:41.797Z,7.67
2017-08-17T21:07:10.198Z,7.40
2017-08-17T21:09:38.613Z,8.23
2017-08-17T21:12:07.025Z,8.50
2017-08-17T21:14:35.460Z,8.30
2017-08-17T21:17:03.862Z,8.43
2017-08-17T21:19:32.297Z,8.93
2017-08-17T21:22:00.702Z,8.40
2017-08-17T21:24:29.101Z,8.80
2017-08-17T21:26:57.540Z,8.20
2017-08-17T21:29:25.947Z,9.30
2017-08-17T21:31:54.411Z,10.90
2017-08-17T21:34:22.826Z,7.83
2017-08-17T21:36:51.283Z,8.37
2017-08-17T21:39:19.731Z,8.60
2017-08-17T21:41:48.150Z,8.07
2017-08-17T21:44:16.545Z,8.37
2017-08-17T21:46:44.974Z,8.00
2017-08-17T21:49:13.376Z,7.97
2017-08-17T21:51:41.793Z,8.90
2017-08-17T21:54:10.222Z,8.70
2017-08-17T21:56:38.626Z,8.70
2017-08-17T21:59:07.037Z,7.00
2017-08-17T22:01:35.457Z,8.70
2017-08-17T22:04:03.875Z,9.03
2017-08-17T22:06:32.278Z,7.50
2017-08-17T22:09:00.701Z,7.90
2017-08-17T22:11:29.100Z,7.57
2017-08-17T22:13:57.522Z,8.50
2017-08-17T22:16:25.930Z,8.20
2017-08-17T22:18:54.331Z,8.20
2017-08-17T22:21:22.810Z,9.00
2017-08-17T22:23:51.217Z,9.23
2017-08-17T22:26:19.635Z,8.93
2017-08-17T22:28:48.110Z,8.20
2017-08-17T22:31:16.515Z,8.27
2017-08-17T22:33:44.913Z,8.17
2017-08-17T22:36:13.329Z,9.20
2017-08-17T22:38:41.730Z,8.37
2017-08-17T22:41:10.129Z,8.10
2017-08-17T22:43:38.568Z,8.50
2017-08-17T22:46:06.997Z,8.17
2017-08-17T22:48:35.433Z,7.70
2017-08-17T22:51:03.877Z,8.47
2017-08-17T22:53:32.282Z,8.40
2017-08-17T22:56:00.763Z,7.40
2017-08-17T22:58:29.187Z,8.37
2017-08-17T23:00:57.586Z,7.97
2017-08-17T23:03:26.773Z,7.53
2017-08-17T23:05:55.196Z,7.80
2017-08-17T23:08:23.597Z,7.30
2017-08-17T23:10:52.010Z,8.70
2017-08-17T23:13:20.427Z,7.83
2017-08-17T23:15:48.825Z,8.40
2017-08-17T23:18:17.225Z,8.20
2017-08-17T23:20:45.705Z,8.40
2017-08-17T23:23:14.114Z,8.10
2017-08-17T23:25:42.517Z,9.00
2017-08-17T23:28:10.947Z,8.27
2017-08-17T23:30:39.378Z,8.80
2017-08-17T23:33:08.571Z,8.20
2017-08-17T23:35:36.995Z,8.43
2017-08-17T23:38:05.458Z,8.07
2017-08-17T23:40:33.889Z,9.00
2017-08-17T23:43:02.336Z,9.70
2017-08-17T23:45:30.760Z,9.07
2017-08-17T23:47:59.205Z,8.87
2017-08-17T23:50:27.637Z,9.80
2017-08-17T23:52:56.047Z,8.90
2017-08-17T23:55:24.482Z,9.20
2017-08-17T23:57:52.887Z,8.93
